Time;durP1;ratioP1;P1;durP2;ratioP2;P2;SDS_P1;SDS_P2;PMS_P1;PMS_P2;Temp;Humidity;BMP_temperature;BMP_pressure;BME280_temperature;BME280_humidity;BME280_pressure;Samples;Min_cycle;Max_cycle;Signal;HPM_P1;HPM_P2
2022/03/09 00:00:52;;;;;;;6.82;6.10;;;2.40;81.10;;;;;;5134495;27;20047;-73
2022/03/09 00:03:17;;;;;;;6.53;5.93;;;2.30;81.20;;;;;;5139396;27;20117;-73
2022/03/09 00:05:43;;;;;;;7.85;6.47;;;2.30;81.90;;;;;;5152607;27;20042;-73
2022/03/09 00:08:09;;;;;;;7.40;6.38;;;2.30;82.40;;;;;;5134960;27;20084;-73
2022/03/09 00:10:34;;;;;;;7.40;6.40;;;2.20;82.70;;;;;;5135199;27;20126;-73
2022/03/09 00:13:00;;;;;;;6.60;5.90;;;2.30;83.00;;;;;;5153270;27;20050;-73
2022/03/09 00:15:26;;;;;;;7.35;6.50;;;2.20;83.20;;;;;;5136942;27;20047;-73
2022/03/09 00:17:51;;;;;;;8.05;6.88;;;2.10;83.10;;;;;;5135123;27;20506;-73
2022/03/09 00:20:17;;;;;;;7.60;6.82;;;2.20;83.40;;;;;;5150998;27;20092;-73
2022/03/09 00:22:43;;;;;;;7.00;6.30;;;2.20;83.20;;;;;;5150064;27;20047;-74
2022/03/09 00:25:09;;;;;;;7.68;6.70;;;2.20;83.50;;;;;;5134503;27;20086;-73
2022/03/09 00:27:34;;;;;;;7.72;6.70;;;2.20;83.80;;;;;;5149958;27;20115;-73
2022/03/09 00:30:01;;;;;;;9.07;6.80;;;2.10;84.10;;;;;;5154803;27;20091;-73
2022/03/09 00:32:27;;;;;;;7.35;6.57;;;2.10;84.50;;;;;;5154468;27;20053;-73
2022/03/09 00:34:53;;;;;;;7.80;7.00;;;2.10;84.60;;;;;;5138168;27;20050;-73
2022/03/09 00:37:20;;;;;;;8.27;6.68;;;2.10;85.10;;;;;;5142678;27;20035;-73
2022/03/09 00:39:46;;;;;;;7.97;7.18;;;2.00;85.30;;;;;;5154976;27;20490;-73
2022/03/09 00:42:11;;;;;;;7.78;6.85;;;2.00;85.80;;;;;;5152961;27;20046;-73
2022/03/09 00:44:37;;;;;;;7.72;6.53;;;2.00;86.30;;;;;;5140180;27;20475;-73
2022/03/09 00:47:03;;;;;;;9.52;6.97;;;2.00;86.60;;;;;;5142589;27;20038;-73
2022/03/09 00:49:29;;;;;;;9.23;7.50;;;2.00;87.00;;;;;;5155088;27;20058;-73
2022/03/09 00:51:55;;;;;;;9.55;7.55;;;2.00;87.60;;;;;;5153825;27;20387;-73
2022/03/09 00:54:20;;;;;;;7.55;6.85;;;1.90;87.90;;;;;;5144883;27;20099;-73
2022/03/09 00:56:46;;;;;;;8.63;7.35;;;1.90;87.80;;;;;;5139000;27;20440;-74
2022/03/09 00:59:12;;;;;;;8.65;7.75;;;1.90;87.90;;;;;;5154902;27;20073;-73
2022/03/09 01:01:37;;;;;;;9.18;7.18;;;1.80;88.10;;;;;;5150608;27;20042;-73
2022/03/09 01:04:03;;;;;;;8.18;7.03;;;1.80;88.30;;;;;;5133774;27;20099;-73
2022/03/09 01:06:29;;;;;;;8.10;7.15;;;1.80;88.30;;;;;;5135595;27;20043;-73
2022/03/09 01:08:57;;;;;;;8.48;7.30;;;1.80;88.50;;;;;;5154209;27;20043;-73
2022/03/09 01:11:23;;;;;;;8.55;7.68;;;1.80;88.60;;;;;;5153157;27;20046;-73
2022/03/09 01:13:48;;;;;;;8.20;7.40;;;1.80;89.10;;;;;;5133416;27;20054;-74
2022/03/09 01:16:14;;;;;;;9.70;8.05;;;1.80;90.10;;;;;;5153331;27;20407;-73
2022/03/09 01:18:40;;;;;;;10.40;8.57;;;1.70;90.20;;;;;;5154433;27;20054;-73
2022/03/09 01:21:06;;;;;;;9.00;7.97;;;1.70;90.10;;;;;;5135761;27;20046;-72
2022/03/09 01:23:32;;;;;;;10.82;8.15;;;1.70;90.40;;;;;;5133702;28;20519;-73
2022/03/09 01:25:57;;;;;;;10.23;8.02;;;1.60;90.60;;;;;;5144773;27;20053;-73
2022/03/09 01:28:23;;;;;;;9.50;8.23;;;1.60;91.00;;;;;;5154403;27;20038;-73
2022/03/09 01:30:49;;;;;;;8.85;7.93;;;1.60;91.20;;;;;;5134986;27;20048;-73
2022/03/09 01:33:14;;;;;;;9.15;8.23;;;1.50;91.50;;;;;;5155174;27;20047;-73
2022/03/09 01:35:40;;;;;;;9.60;8.60;;;1.60;91.40;;;;;;5145724;27;20500;-73
2022/03/09 01:38:06;;;;;;;10.60;8.75;;;1.60;91.30;;;;;;5137024;27;20039;-73
2022/03/09 01:40:31;;;;;;;9.60;8.63;;;1.60;91.30;;;;;;5149193;27;20047;-73
2022/03/09 01:42:57;;;;;;;8.90;8.00;;;1.60;91.30;;;;;;5125179;27;20051;-73
2022/03/09 01:45:24;;;;;;;9.45;8.45;;;1.60;91.20;;;;;;5148265;27;20075;-73
2022/03/09 01:47:50;;;;;;;9.88;8.35;;;1.60;91.50;;;;;;5158434;27;20126;-73
2022/03/09 01:50:16;;;;;;;11.13;8.77;;;1.50;91.50;;;;;;5148707;27;20114;-73
2022/03/09 01:52:43;;;;;;;10.65;8.15;;;1.50;91.80;;;;;;5137591;27;20094;-73
2022/03/09 01:55:10;;;;;;;10.00;8.50;;;1.50;91.80;;;;;;5137274;27;20053;-73
2022/03/09 01:57:36;;;;;;;11.93;9.02;;;1.40;91.90;;;;;;5137053;27;20373;-73
2022/03/09 02:00:04;;;;;;;9.50;8.60;;;1.40;92.20;;;;;;5142888;27;20091;-73
2022/03/09 02:02:30;;;;;;;9.98;8.20;;;1.40;92.30;;;;;;5158078;27;20042;-73
2022/03/09 02:04:55;;;;;;;9.07;8.18;;;1.40;92.30;;;;;;5141149;27;20103;-73
2022/03/09 02:09:41;;;;;;;9.13;8.23;;;1.30;92.50;;;;;;5158334;27;20053;-73
2022/03/09 02:10:08;;;;;;;9.63;8.50;;;1.30;92.90;;;;;;5137254;27;20121;-73
2022/03/09 02:12:34;;;;;;;9.93;8.80;;;1.30;93.30;;;;;;5137096;27;20043;-73
2022/03/09 02:15:01;;;;;;;10.20;9.10;;;1.30;93.50;;;;;;5153942;27;20054;-73
2022/03/09 02:17:27;;;;;;;11.88;9.27;;;1.30;93.60;;;;;;5137235;27;20048;-73
2022/03/09 02:19:54;;;;;;;11.57;9.05;;;1.30;93.50;;;;;;5138104;27;20046;-73
2022/03/09 02:22:20;;;;;;;10.85;9.23;;;1.30;93.60;;;;;;5137059;27;20039;-73
2022/03/09 02:24:51;;;;;;;11.02;9.07;;;1.30;93.60;;;;;;5137325;27;20043;-73
2022/03/09 02:27:17;;;;;;;10.45;9.32;;;1.30;93.80;;;;;;5152392;27;20047;-73
2022/03/09 02:29:43;;;;;;;10.45;9.15;;;1.30;94.00;;;;;;5155470;27;20479;-73
2022/03/09 02:32:10;;;;;;;10.85;9.45;;;1.30;94.20;;;;;;5157343;27;20053;-73
2022/03/09 02:34:36;;;;;;;11.43;9.40;;;1.20;94.30;;;;;;5145051;27;20078;-73
2022/03/09 02:37:01;;;;;;;10.27;9.27;;;1.20;94.50;;;;;;5138949;27;20074;-73
2022/03/09 02:39:27;;;;;;;10.40;9.30;;;1.20;94.60;;;;;;5150427;27;20051;-73
2022/03/09 02:41:53;;;;;;;10.23;9.23;;;1.20;94.90;;;;;;5140743;27;20480;-73
2022/03/09 02:44:18;;;;;;;11.38;9.38;;;1.20;95.20;;;;;;5135935;27;20134;-73
2022/03/09 02:46:44;;;;;;;10.00;9.00;;;1.20;95.40;;;;;;5150873;27;20125;-73
2022/03/09 02:49:10;;;;;;;10.68;9.35;;;1.10;95.60;;;;;;5156799;27;20130;-73
2022/03/09 02:51:36;;;;;;;10.60;9.45;;;1.10;95.70;;;;;;5144311;27;20047;-73
2022/03/09 02:54:02;;;;;;;11.40;9.88;;;1.10;95.90;;;;;;5118032;27;20529;-73
2022/03/09 02:56:27;;;;;;;10.93;9.30;;;1.10;96.10;;;;;;5146965;27;20039;-73
2022/03/09 02:58:53;;;;;;;11.98;10.27;;;1.00;96.10;;;;;;5156935;27;20047;-73
2022/03/09 03:01:19;;;;;;;12.15;10.20;;;1.00;96.20;;;;;;5147190;27;20406;-73
2022/03/09 03:03:45;;;;;;;10.82;9.70;;;1.00;96.40;;;;;;5137352;27;20187;-73
2022/03/09 03:06:12;;;;;;;11.65;9.93;;;0.90;96.60;;;;;;5136868;27;20039;-73
2022/03/09 03:08:38;;;;;;;12.48;10.07;;;0.90;97.20;;;;;;5136144;27;20126;-72
2022/03/09 03:11:06;;;;;;;11.07;9.65;;;0.80;97.80;;;;;;5141198;27;20039;-73
2022/03/09 03:13:31;;;;;;;11.98;10.68;;;0.80;98.20;;;;;;5156728;27;20071;-73
2022/03/09 03:15:57;;;;;;;11.60;10.40;;;0.70;98.60;;;;;;5155865;27;20038;-72
2022/03/09 03:18:23;;;;;;;14.20;10.73;;;0.70;98.70;;;;;;5156200;27;20470;-73
2022/03/09 03:20:54;;;;;;;12.38;10.07;;;0.70;99.10;;;;;;5153723;27;20054;-73
2022/03/09 03:23:31;;;;;;;11.75;10.43;;;0.60;99.60;;;;;;5136513;27;20046;-73
2022/03/09 03:25:57;;;;;;;11.82;10.13;;;0.60;99.90;;;;;;5136843;27;20438;-73
2022/03/09 03:28:24;;;;;;;11.80;10.60;;;0.60;99.50;;;;;;5156098;27;20399;-73
2022/03/09 03:30:50;;;;;;;12.07;10.88;;;0.60;99.50;;;;;;5156271;27;20047;-73
2022/03/09 03:33:17;;;;;;;11.10;9.95;;;0.60;99.30;;;;;;5155527;27;20062;-73
2022/03/09 03:35:44;;;;;;;11.07;9.98;;;0.60;99.40;;;;;;5156410;27;20042;-73
2022/03/09 03:38:10;;;;;;;11.60;10.40;;;0.60;99.40;;;;;;5136143;27;20470;-73
2022/03/09 03:40:37;;;;;;;12.10;10.03;;;0.60;99.40;;;;;;5148038;27;20042;-73
2022/03/09 03:43:03;;;;;;;11.70;10.32;;;0.60;99.50;;;;;;5155788;27;20395;-73
2022/03/09 03:45:29;;;;;;;11.13;10.02;;;0.50;99.50;;;;;;5144616;27;20067;-73
2022/03/09 03:47:55;;;;;;;10.95;9.85;;;0.50;99.70;;;;;;5148991;27;20035;-73
2022/03/09 03:50:21;;;;;;;11.20;10.10;;;0.50;99.90;;;;;;5145923;27;20035;-73
2022/03/09 03:52:47;;;;;;;11.52;10.07;;;0.40;99.80;;;;;;5135243;27;20050;-73
2022/03/09 03:55:12;;;;;;;11.53;10.33;;;0.40;99.90;;;;;;5152958;27;20483;-73
2022/03/09 03:57:38;;;;;;;11.37;10.17;;;0.40;99.90;;;;;;5146645;27;20043;-73
2022/03/09 04:00:05;;;;;;;11.60;10.40;;;0.40;99.90;;;;;;5135141;27;20077;-73
2022/03/09 04:02:31;;;;;;;11.73;10.52;;;0.40;99.90;;;;;;5135570;27;20511;-73
2022/03/09 04:04:57;;;;;;;12.33;10.23;;;0.40;99.90;;;;;;5135195;27;20035;-73
2022/03/09 04:07:23;;;;;;;13.13;10.93;;;0.40;99.90;;;;;;5142149;27;20046;-73
2022/03/09 04:09:48;;;;;;;12.37;10.80;;;0.40;99.90;;;;;;5152971;27;20042;-73
2022/03/09 04:12:14;;;;;;;11.60;10.30;;;0.30;99.90;;;;;;5154016;27;20093;-73
2022/03/09 04:14:40;;;;;;;11.77;10.57;;;0.30;99.90;;;;;;5154609;27;20462;-73
2022/03/09 04:17:06;;;;;;;12.37;10.13;;;0.30;99.90;;;;;;5136726;27;20071;-73
2022/03/09 04:19:32;;;;;;;11.68;10.20;;;0.30;99.90;;;;;;5154936;27;20047;-73
2022/03/09 04:21:58;;;;;;;11.23;9.97;;;0.30;99.90;;;;;;5135417;27;20047;-73
2022/03/09 04:24:24;;;;;;;11.27;10.17;;;0.30;99.90;;;;;;5134234;27;20043;-72
2022/03/09 04:26:50;;;;;;;12.18;10.50;;;0.30;99.90;;;;;;5141885;27;20047;-73
2022/03/09 04:29:15;;;;;;;12.47;10.30;;;0.30;99.90;;;;;;5137454;27;20484;-73
2022/03/09 04:31:41;;;;;;;12.07;10.80;;;0.20;99.90;;;;;;5151068;27;20046;-73
2022/03/09 04:34:07;;;;;;;10.87;9.77;;;0.20;99.90;;;;;;5134443;27;20043;-73
2022/03/09 04:36:33;;;;;;;13.17;10.67;;;0.20;99.90;;;;;;5146413;27;20052;-72
2022/03/09 04:38:59;;;;;;;12.75;10.57;;;0.10;99.90;;;;;;5154971;27;20077;-73
2022/03/09 04:41:25;;;;;;;11.50;10.33;;;0.10;99.90;;;;;;5125012;27;20051;-73
2022/03/09 04:43:51;;;;;;;12.10;10.40;;;0.10;99.90;;;;;;5134314;27;20131;-73
2022/03/09 04:46:16;;;;;;;12.45;10.80;;;0.10;99.90;;;;;;5141157;27;20118;-84
2022/03/09 04:48:43;;;;;;;12.05;10.73;;;0.10;99.90;;;;;;5136654;27;20387;-71
2022/03/09 04:51:09;;;;;;;12.37;10.50;;;0.10;99.90;;;;;;5144584;27;20072;-72
2022/03/09 04:53:35;;;;;;;12.23;10.87;;;0.00;99.90;;;;;;5133409;27;20434;-72
2022/03/09 04:56:01;;;;;;;11.38;10.23;;;0.00;99.90;;;;;;5117058;27;20098;-72
2022/03/09 04:58:27;;;;;;;11.63;10.43;;;0.00;99.90;;;;;;5133623;27;20383;-73
2022/03/09 05:00:53;;;;;;;12.20;10.70;;;0.00;99.90;;;;;;5142904;27;20091;-73
2022/03/09 05:03:18;;;;;;;12.30;11.00;;;-0.10;99.90;;;;;;5154643;27;20387;-73
2022/03/09 05:05:44;;;;;;;12.67;10.97;;;-0.10;99.90;;;;;;5147166;27;20031;-73
2022/03/09 05:08:10;;;;;;;12.00;10.70;;;-0.10;99.90;;;;;;5132986;27;20047;-73
2022/03/09 05:10:36;;;;;;;12.10;10.87;;;-0.10;99.90;;;;;;5146064;27;20038;-77
2022/03/09 05:13:03;;;;;;;12.33;10.37;;;-0.10;99.90;;;;;;5145445;27;20404;-73
2022/03/09 05:15:29;;;;;;;11.80;10.50;;;-0.10;99.90;;;;;;5133368;27;20097;-73
2022/03/09 05:17:55;;;;;;;12.07;10.77;;;-0.10;99.90;;;;;;5133713;27;20495;-73
2022/03/09 05:20:21;;;;;;;11.63;10.37;;;-0.20;99.90;;;;;;5133445;28;20049;-73
2022/03/09 05:22:47;;;;;;;11.20;10.00;;;-0.10;99.90;;;;;;5133866;28;20047;-73
2022/03/09 05:25:14;;;;;;;11.90;10.67;;;-0.20;99.90;;;;;;5133722;28;20062;-73
2022/03/09 05:27:40;;;;;;;11.80;10.07;;;-0.20;99.90;;;;;;5133213;28;20476;-73
2022/03/09 05:30:08;;;;;;;13.03;10.50;;;-0.20;99.90;;;;;;5133706;28;20054;-73
2022/03/09 05:32:34;;;;;;;12.43;10.60;;;-0.20;99.90;;;;;;5133218;28;20092;-73
2022/03/09 05:34:59;;;;;;;13.67;10.43;;;-0.20;99.90;;;;;;5115542;28;20040;-73
2022/03/09 05:37:28;;;;;;;12.00;10.27;;;-0.10;99.90;;;;;;5133131;28;20043;-73
2022/03/09 05:39:54;;;;;;;11.73;9.93;;;-0.20;99.90;;;;;;5133862;28;20066;-73
2022/03/09 05:42:19;;;;;;;11.70;9.97;;;-0.10;99.90;;;;;;5133155;28;20055;-73
2022/03/09 05:44:45;;;;;;;12.90;11.10;;;-0.10;99.90;;;;;;5133519;28;20043;-73
2022/03/09 05:47:11;;;;;;;13.23;11.13;;;-0.10;99.90;;;;;;5133989;28;20047;-73
2022/03/09 05:49:36;;;;;;;12.03;10.50;;;-0.10;99.90;;;;;;5133071;28;20047;-73
2022/03/09 05:52:04;;;;;;;11.77;10.37;;;-0.10;99.90;;;;;;5133489;28;20125;-73
2022/03/09 05:54:30;;;;;;;12.00;10.73;;;-0.10;99.90;;;;;;5133093;28;20043;-73
2022/03/09 05:56:55;;;;;;;11.60;10.40;;;-0.10;99.90;;;;;;5133149;28;20551;-73
2022/03/09 05:59:21;;;;;;;11.67;10.47;;;-0.20;99.90;;;;;;5114610;28;20082;-73
2022/03/09 06:01:47;;;;;;;12.70;10.70;;;-0.20;99.90;;;;;;5133056;28;20039;-73
2022/03/09 06:04:13;;;;;;;11.63;10.43;;;-0.20;99.90;;;;;;5114839;28;20061;-73
2022/03/09 06:06:38;;;;;;;12.33;11.03;;;-0.20;99.90;;;;;;5132982;28;20043;-73
2022/03/09 06:09:04;;;;;;;12.03;10.33;;;-0.20;99.90;;;;;;5133512;28;20058;-73
2022/03/09 06:11:30;;;;;;;12.67;10.60;;;-0.20;99.90;;;;;;5132925;28;20062;-72
2022/03/09 06:13:55;;;;;;;12.80;10.83;;;-0.20;99.90;;;;;;5133290;28;20164;-73
2022/03/09 06:16:21;;;;;;;12.70;11.30;;;-0.20;99.90;;;;;;5133333;28;20381;-73
2022/03/09 06:18:47;;;;;;;12.23;10.87;;;-0.20;99.90;;;;;;5133200;27;20031;-73
2022/03/09 06:21:15;;;;;;;12.03;10.73;;;-0.20;99.90;;;;;;5136934;27;20114;-73
2022/03/09 06:23:41;;;;;;;12.73;11.20;;;-0.20;99.90;;;;;;5136467;27;20045;-73
2022/03/09 06:26:07;;;;;;;12.87;11.20;;;-0.20;99.90;;;;;;5136899;27;20051;-73
2022/03/09 06:28:33;;;;;;;12.80;11.40;;;-0.20;99.90;;;;;;5136419;27;20050;-72
2022/03/09 06:30:59;;;;;;;13.30;11.90;;;-0.20;99.90;;;;;;5136964;27;20043;-72
2022/03/09 06:33:25;;;;;;;12.13;10.67;;;-0.20;99.90;;;;;;5136497;27;20480;-73
2022/03/09 06:35:51;;;;;;;12.07;10.77;;;-0.20;99.90;;;;;;5136995;27;20496;-73
2022/03/09 06:38:17;;;;;;;13.00;11.20;;;-0.20;99.90;;;;;;5136524;27;20047;-72
2022/03/09 06:40:43;;;;;;;12.97;11.57;;;-0.20;99.90;;;;;;5136327;27;20051;-73
2022/03/09 06:43:09;;;;;;;13.00;11.70;;;-0.10;99.90;;;;;;5136678;27;20054;-73
2022/03/09 06:45:35;;;;;;;13.20;11.80;;;-0.10;99.90;;;;;;5136192;27;20045;-72
2022/03/09 06:48:02;;;;;;;13.17;11.60;;;0.00;99.90;;;;;;5136559;27;20035;-72
2022/03/09 06:50:29;;;;;;;12.37;10.83;;;0.00;99.90;;;;;;5136037;27;20047;-73
2022/03/09 06:52:55;;;;;;;12.73;11.37;;;0.00;99.90;;;;;;5136492;27;20043;-73
2022/03/09 06:55:21;;;;;;;12.43;11.10;;;0.10;99.90;;;;;;5136458;27;20039;-73
2022/03/09 06:57:46;;;;;;;12.60;10.73;;;0.20;99.90;;;;;;5135502;27;20470;-73
2022/03/09 07:00:16;;;;;;;13.33;11.30;;;0.20;99.90;;;;;;5136294;27;20047;-73
2022/03/09 07:02:43;;;;;;;13.23;10.88;;;0.20;99.90;;;;;;5135819;27;20039;-73
2022/03/09 07:05:10;;;;;;;13.23;11.30;;;0.40;99.90;;;;;;5136365;27;20043;-73
2022/03/09 07:07:37;;;;;;;15.07;11.77;;;0.90;99.90;;;;;;5135732;27;20130;-73
2022/03/09 07:10:04;;;;;;;12.00;10.70;;;1.80;99.90;;;;;;5136265;27;20099;-73
2022/03/09 07:12:30;;;;;;;12.57;11.17;;;2.70;99.90;;;;;;5135641;27;20050;-73
2022/03/09 07:14:56;;;;;;;11.68;10.48;;;3.40;97.20;;;;;;5136019;27;20043;-73
2022/03/09 07:17:21;;;;;;;12.57;11.07;;;3.70;94.70;;;;;;5136082;27;20043;-73
2022/03/09 07:19:47;;;;;;;11.10;9.90;;;4.00;93.30;;;;;;5135438;27;20495;-73
2022/03/09 07:22:13;;;;;;;11.20;9.98;;;4.20;92.60;;;;;;5135840;27;20134;-73
2022/03/09 07:24:39;;;;;;;10.75;9.65;;;4.40;91.20;;;;;;5135288;27;20118;-73
2022/03/09 07:27:04;;;;;;;10.77;9.60;;;4.80;89.90;;;;;;5135962;27;20047;-73
2022/03/09 07:29:30;;;;;;;11.07;9.88;;;4.90;87.80;;;;;;5116971;27;20046;-73
2022/03/09 07:31:56;;;;;;;10.77;9.77;;;5.10;87.40;;;;;;5134594;27;20143;-73
2022/03/09 07:34:23;;;;;;;11.00;9.27;;;5.60;87.60;;;;;;5135581;27;20245;-73
2022/03/09 07:36:49;;;;;;;10.75;9.35;;;6.00;82.90;;;;;;5135189;27;20050;-74
2022/03/09 07:39:16;;;;;;;9.90;8.90;;;6.40;79.40;;;;;;5135563;27;20058;-73
2022/03/09 07:41:43;;;;;;;9.88;8.57;;;6.40;77.10;;;;;;5134960;27;20047;-73
2022/03/09 07:44:08;;;;;;;10.15;9.10;;;6.00;77.10;;;;;;5135364;27;20057;-71
2022/03/09 07:46:34;;;;;;;11.23;9.18;;;6.10;76.70;;;;;;5134984;27;20118;-73
2022/03/09 07:49:00;;;;;;;10.48;9.05;;;6.30;76.50;;;;;;5135321;27;20050;-73
2022/03/09 07:51:26;;;;;;;9.98;8.90;;;6.40;75.10;;;;;;5135338;27;20047;-73
2022/03/09 07:53:52;;;;;;;9.68;8.68;;;6.10;75.00;;;;;;5134785;27;20480;-73
2022/03/09 07:56:17;;;;;;;9.88;8.82;;;5.70;75.50;;;;;;5135183;27;20494;-73
2022/03/09 07:58:43;;;;;;;11.30;9.45;;;5.40;77.00;;;;;;5133802;27;20035;-73
2022/03/09 08:01:09;;;;;;;10.23;9.23;;;5.20;78.40;;;;;;5135167;27;20082;-73
2022/03/09 08:03:34;;;;;;;9.90;8.90;;;5.00;79.20;;;;;;5116413;27;20391;-73
2022/03/09 08:06:01;;;;;;;10.73;9.63;;;4.90;80.60;;;;;;5135033;27;20046;-74
2022/03/09 08:08:27;;;;;;;10.18;9.05;;;4.80;81.30;;;;;;5099573;27;20440;-73
2022/03/09 08:10:53;;;;;;;9.95;8.95;;;4.80;81.10;;;;;;5134151;27;20047;-74
2022/03/09 08:13:19;;;;;;;10.48;9.20;;;4.90;81.50;;;;;;5135226;27;20180;-73
2022/03/09 08:15:44;;;;;;;11.57;9.32;;;5.30;81.40;;;;;;5133721;27;20043;-73
2022/03/09 08:18:10;;;;;;;10.98;9.15;;;5.50;79.50;;;;;;5108819;27;20050;-73
2022/03/09 08:20:36;;;;;;;11.02;9.48;;;5.70;78.90;;;;;;5129780;27;20046;-73
2022/03/09 08:23:02;;;;;;;11.43;9.40;;;5.80;77.80;;;;;;5131164;27;20051;-73
2022/03/09 08:25:28;;;;;;;11.00;9.05;;;6.10;77.60;;;;;;5131463;27;20050;-73
2022/03/09 08:27:54;;;;;;;11.30;9.25;;;6.30;76.40;;;;;;5095936;27;20479;-73
2022/03/09 08:30:20;;;;;;;11.85;9.10;;;6.50;74.10;;;;;;5163025;27;20444;-73
2022/03/09 08:32:45;;;;;;;9.98;8.90;;;6.80;73.30;;;;;;5151818;27;20047;-73
2022/03/09 08:35:11;;;;;;;9.95;8.90;;;6.90;72.50;;;;;;5151862;27;20074;-73
2022/03/09 08:37:37;;;;;;;10.20;9.20;;;6.90;71.60;;;;;;5152907;27;20126;-73
2022/03/09 08:40:04;;;;;;;9.48;8.32;;;6.80;71.20;;;;;;5155758;27;20055;-73
2022/03/09 08:42:29;;;;;;;10.52;9.13;;;6.80;71.70;;;;;;5151788;27;20046;-73
2022/03/09 08:44:55;;;;;;;9.85;8.80;;;6.70;71.40;;;;;;5151807;27;20096;-73
2022/03/09 08:47:21;;;;;;;9.85;8.70;;;6.80;72.00;;;;;;5151856;27;20049;-73
2022/03/09 08:49:47;;;;;;;10.45;9.43;;;6.80;72.70;;;;;;5150662;27;20039;-74
2022/03/09 08:52:13;;;;;;;10.23;8.82;;;7.10;73.20;;;;;;5152247;27;20047;-73
2022/03/09 08:54:40;;;;;;;9.05;8.15;;;7.20;69.40;;;;;;5151087;27;20074;-73
2022/03/09 08:57:06;;;;;;;9.50;8.50;;;7.40;67.90;;;;;;5151718;27;20129;-74
2022/03/09 08:59:32;;;;;;;9.27;8.35;;;7.50;66.50;;;;;;5151720;27;20133;-74
2022/03/09 09:01:58;;;;;;;9.15;8.00;;;7.70;65.70;;;;;;5151050;27;20049;-73
2022/03/09 09:04:24;;;;;;;9.85;8.63;;;8.10;64.50;;;;;;5151114;27;20053;-74
2022/03/09 09:06:50;;;;;;;9.45;8.35;;;8.50;63.10;;;;;;5133405;27;20043;-74
2022/03/09 09:09:17;;;;;;;10.25;7.80;;;8.90;61.40;;;;;;5149900;27;20495;-73
2022/03/09 09:11:44;;;;;;;10.23;8.00;;;9.20;59.60;;;;;;5123919;27;20054;-73
2022/03/09 09:14:10;;;;;;;10.23;8.25;;;9.50;58.70;;;;;;5146438;27;20039;-74
2022/03/09 09:16:36;;;;;;;11.38;7.80;;;9.60;57.20;;;;;;5151310;27;20478;-74
2022/03/09 09:19:02;;;;;;;9.15;7.60;;;9.80;56.40;;;;;;5149976;27;20031;-74
2022/03/09 09:21:28;;;;;;;8.77;7.88;;;9.90;56.10;;;;;;5151211;27;20038;-74
2022/03/09 09:23:54;;;;;;;8.93;8.02;;;10.20;56.50;;;;;;5151024;27;20113;-73
2022/03/09 09:26:20;;;;;;;10.25;8.90;;;10.30;55.50;;;;;;5150751;27;20452;-74
2022/03/09 09:28:46;;;;;;;10.23;8.30;;;10.60;55.00;;;;;;5128296;27;20035;-74
2022/03/09 09:31:12;;;;;;;8.77;7.88;;;10.80;54.60;;;;;;5151198;27;20043;-73
2022/03/09 09:33:38;;;;;;;10.50;8.70;;;10.90;54.10;;;;;;5150685;27;20113;-74
2022/03/09 09:36:04;;;;;;;9.93;8.02;;;10.90;52.80;;;;;;5150386;27;20390;-73
2022/03/09 09:38:29;;;;;;;9.00;8.07;;;10.90;52.70;;;;;;5150654;27;20062;-74
2022/03/09 09:40:56;;;;;;;8.52;7.65;;;11.00;52.40;;;;;;5150519;27;20050;-74
2022/03/09 09:43:23;;;;;;;9.02;8.23;;;11.30;52.20;;;;;;5150840;27;20039;-73
2022/03/09 09:45:50;;;;;;;9.55;8.25;;;11.40;51.40;;;;;;5127939;27;20054;-74
2022/03/09 09:48:17;;;;;;;8.73;7.93;;;11.50;50.20;;;;;;5150691;27;20077;-74
2022/03/09 09:50:43;;;;;;;8.35;7.50;;;11.70;50.20;;;;;;5150698;27;20057;-74
2022/03/09 09:53:12;;;;;;;8.35;7.55;;;11.70;51.20;;;;;;5150811;27;20041;-74
2022/03/09 09:55:39;;;;;;;9.60;7.90;;;12.00;50.50;;;;;;5149342;27;20038;-73
2022/03/09 09:58:05;;;;;;;9.25;8.02;;;12.10;49.40;;;;;;5154111;27;20042;-74
2022/03/09 10:00:32;;;;;;;9.77;8.15;;;12.30;50.00;;;;;;5154578;27;20094;-75
2022/03/09 10:02:58;;;;;;;8.98;8.07;;;12.40;50.00;;;;;;5154066;27;20122;-75
2022/03/09 10:05:25;;;;;;;9.00;8.07;;;12.60;49.30;;;;;;5154614;27;20050;-73
2022/03/09 10:08:06;;;;;;;8.60;7.80;;;12.70;48.90;;;;;;5153838;27;20372;-73
2022/03/09 10:10:34;;;;;;;8.88;8.00;;;12.90;45.80;;;;;;5154100;27;20047;-73
2022/03/09 10:13:21;;;;;;;9.95;8.60;;;12.90;47.60;;;;;;5153537;27;20078;-73
2022/03/09 10:16:05;;;;;;;11.00;8.77;;;12.80;46.50;;;;;;5135959;27;20050;-73
2022/03/09 10:18:31;;;;;;;8.63;7.82;;;12.50;47.00;;;;;;5154341;27;20039;-73
2022/03/09 10:21:08;;;;;;;10.98;8.45;;;12.60;48.60;;;;;;5154581;27;20043;-73
2022/03/09 10:23:49;;;;;;;9.32;8.38;;;12.60;47.70;;;;;;5150219;27;20369;-73
2022/03/09 10:26:15;;;;;;;9.02;8.13;;;12.70;48.40;;;;;;5134321;27;20408;-73
2022/03/09 10:29:01;;;;;;;9.43;8.43;;;12.60;47.70;;;;;;5133930;27;20046;-72
2022/03/09 10:31:31;;;;;;;10.52;8.68;;;12.60;47.80;;;;;;5133883;27;20047;-73
2022/03/09 10:34:19;;;;;;;9.57;8.65;;;12.50;47.20;;;;;;5133690;27;20086;-73
2022/03/09 10:37:06;;;;;;;10.98;9.27;;;12.40;47.30;;;;;;5133795;27;20043;-72
2022/03/09 10:39:35;;;;;;;10.18;8.88;;;12.40;48.40;;;;;;5142281;27;20059;-72
2022/03/09 10:42:03;;;;;;;9.65;8.65;;;12.30;47.70;;;;;;5154421;27;20373;-73
2022/03/09 10:44:46;;;;;;;10.32;8.70;;;12.20;48.40;;;;;;5154709;27;20051;-72
2022/03/09 10:47:27;;;;;;;9.43;8.52;;;12.10;48.10;;;;;;5153927;27;20049;-72
2022/03/09 10:49:53;;;;;;;9.95;8.63;;;11.90;48.00;;;;;;5154203;27;20119;-73
2022/03/09 10:52:19;;;;;;;10.05;8.82;;;12.00;47.20;;;;;;5154654;27;20475;-73
2022/03/09 10:54:45;;;;;;;9.05;8.15;;;11.80;48.00;;;;;;5153086;27;20122;-73
2022/03/09 10:57:13;;;;;;;9.68;8.65;;;11.70;47.80;;;;;;5154212;27;20041;-73
2022/03/09 10:59:53;;;;;;;9.88;8.85;;;11.50;48.30;;;;;;5154389;27;20060;-72
2022/03/09 11:02:21;;;;;;;9.30;8.40;;;11.40;49.50;;;;;;5153947;27;20038;-72
2022/03/09 11:05:10;;;;;;;9.82;8.82;;;11.30;47.60;;;;;;5154307;27;20391;-72
2022/03/09 11:07:37;;;;;;;9.65;8.73;;;11.30;47.30;;;;;;5154359;27;20134;-72
2022/03/09 11:10:04;;;;;;;9.88;8.98;;;11.30;47.60;;;;;;5152516;27;20046;-72
2022/03/09 11:12:31;;;;;;;10.57;8.93;;;11.10;48.90;;;;;;5154137;27;20464;-72
2022/03/09 11:14:57;;;;;;;10.05;8.77;;;11.10;48.40;;;;;;5153311;27;20399;-72
2022/03/09 11:17:23;;;;;;;10.10;9.10;;;11.10;47.60;;;;;;5153436;27;20046;-72
2022/03/09 11:19:49;;;;;;;9.70;8.68;;;11.00;48.20;;;;;;5153687;27;20050;-72
2022/03/09 11:22:15;;;;;;;9.90;8.82;;;11.00;48.00;;;;;;5153578;27;20039;-72
2022/03/09 11:24:41;;;;;;;11.02;9.38;;;11.10;48.10;;;;;;5153491;27;20539;-72
2022/03/09 11:27:09;;;;;;;10.25;9.23;;;11.10;48.10;;;;;;5152554;27;20051;-73
2022/03/09 11:29:36;;;;;;;10.38;9.20;;;11.20;48.30;;;;;;5153547;27;20522;-72
2022/03/09 11:32:07;;;;;;;10.82;9.65;;;11.20;48.40;;;;;;5153089;27;20126;-72
2022/03/09 11:34:43;;;;;;;10.80;9.70;;;11.30;47.70;;;;;;5153857;27;20061;-72
2022/03/09 11:37:33;;;;;;;10.48;9.48;;;11.30;46.50;;;;;;5153248;27;20091;-72
2022/03/09 11:40:10;;;;;;;10.13;9.13;;;11.30;46.10;;;;;;5152462;27;20058;-72
2022/03/09 11:42:41;;;;;;;10.77;9.27;;;11.30;46.50;;;;;;5153407;27;20047;-72
2022/03/09 11:45:29;;;;;;;9.60;8.70;;;11.40;47.00;;;;;;5134396;27;20053;-72
2022/03/09 11:48:12;;;;;;;11.13;9.48;;;11.30;46.40;;;;;;5153201;27;20075;-72
2022/03/09 11:50:59;;;;;;;10.38;9.30;;;11.40;46.70;;;;;;5153555;27;20058;-72
2022/03/09 11:53:51;;;;;;;10.93;9.60;;;11.40;48.20;;;;;;5136063;27;20078;-72
2022/03/09 11:56:35;;;;;;;10.50;9.40;;;11.40;47.30;;;;;;5152234;27;20054;-72
2022/03/09 11:59:08;;;;;;;10.95;9.85;;;11.50;46.90;;;;;;5141742;27;20257;-72
2022/03/09 12:02:07;;;;;;;10.63;9.60;;;11.50;46.50;;;;;;5152084;27;20038;-74
2022/03/09 12:04:51;;;;;;;10.73;9.43;;;11.50;47.70;;;;;;5132205;27;20046;-73
2022/03/09 12:07:33;;;;;;;10.68;9.57;;;11.60;47.50;;;;;;5131628;27;20082;-73
2022/03/09 12:10:00;;;;;;;10.50;9.35;;;11.70;47.20;;;;;;5132005;27;20142;-74
2022/03/09 12:12:31;;;;;;;10.32;9.32;;;11.70;46.60;;;;;;5132281;27;20434;-73
2022/03/09 12:15:04;;;;;;;12.23;9.82;;;11.70;46.60;;;;;;5152529;27;20317;-73
2022/03/09 12:17:30;;;;;;;10.82;9.73;;;11.80;46.80;;;;;;5151838;27;20043;-73
2022/03/09 12:20:25;;;;;;;12.30;10.23;;;11.80;46.80;;;;;;5152869;27;20123;-73
2022/03/09 12:22:57;;;;;;;11.20;10.00;;;11.80;47.10;;;;;;5154214;27;20046;-73
2022/03/09 12:25:40;;;;;;;11.10;9.90;;;11.80;46.50;;;;;;5154324;27;20121;-73
2022/03/09 12:28:24;;;;;;;10.07;9.07;;;11.90;46.20;;;;;;5155161;27;20099;-73
2022/03/09 12:30:52;;;;;;;10.90;9.80;;;11.90;47.10;;;;;;5155343;27;20078;-75
2022/03/09 12:33:28;;;;;;;11.40;10.13;;;11.90;47.00;;;;;;5154651;27;20483;-75
2022/03/09 12:36:09;;;;;;;11.10;9.98;;;11.80;46.90;;;;;;5154815;27;20038;-74
2022/03/09 12:38:39;;;;;;;11.63;10.32;;;11.80;46.80;;;;;;5155227;27;20050;-74
2022/03/09 12:41:05;;;;;;;11.25;10.15;;;11.90;45.40;;;;;;5155051;27;20049;-74
2022/03/09 12:43:48;;;;;;;10.98;9.88;;;11.90;46.80;;;;;;5154906;27;20538;-74
2022/03/09 12:46:14;;;;;;;10.80;9.30;;;11.90;46.20;;;;;;5154701;27;20047;-74